createdAt,value
2019-02-05T00:01:15.546Z,62.62
2019-02-05T00:06:16.912Z,62.94
2019-02-05T00:11:18.244Z,62.88
2019-02-05T00:16:20.317Z,62.76
2019-02-05T00:21:22.530Z,62.64
2019-02-05T00:26:23.876Z,62.67
2019-02-05T00:31:25.229Z,62.45
2019-02-05T00:36:26.609Z,62.56
2019-02-05T00:41:28.060Z,62.46
2019-02-05T00:46:30.160Z,62.69
2019-02-05T00:51:32.289Z,63.05
2019-02-05T00:56:33.681Z,63.29
2019-02-05T01:01:35.820Z,63.55
2019-02-05T01:06:37.286Z,63.99
2019-02-05T01:11:38.627Z,64.05
2019-02-05T01:16:40.036Z,64.07
2019-02-05T01:21:41.500Z,64.14
2019-02-05T01:26:42.905Z,64.62
2019-02-05T01:31:45.055Z,64.79
2019-02-05T01:36:46.413Z,64.92
2019-02-05T01:41:48.530Z,64.77
2019-02-05T01:46:50.653Z,64.66
2019-02-05T01:51:52.029Z,65.12
2019-02-05T01:56:53.451Z,65.11
2019-02-05T02:01:54.799Z,65.03
2019-02-05T02:06:56.956Z,66.03
2019-02-05T02:11:58.296Z,66.05
2019-02-05T02:16:59.644Z,65.54
2019-02-05T02:22:01.107Z,64.87
2019-02-05T02:27:02.605Z,64.44
2019-02-05T02:32:03.999Z,64.32
2019-02-05T02:37:06.084Z,64.21
2019-02-05T02:42:07.488Z,63.97
2019-02-05T02:47:08.843Z,63.86
2019-02-05T02:52:10.178Z,64.07
2019-02-05T02:57:12.356Z,63.88
2019-02-05T03:02:14.525Z,64.24
2019-02-05T03:07:15.871Z,64.64
2019-02-05T03:12:17.271Z,64.53
2019-02-05T03:17:18.677Z,64.53
2019-02-05T03:22:20.071Z,64.66
2019-02-05T03:27:21.426Z,64.31
2019-02-05T03:32:22.764Z,64.22
2019-02-05T03:37:24.154Z,63.92
2019-02-05T03:42:25.562Z,64.18
2019-02-05T03:47:27.052Z,63.92
2019-02-05T03:52:28.460Z,64.29
2019-02-05T03:57:47.399Z,64.11
2019-02-05T04:08:48.731Z,65.08
2019-02-05T04:13:52.884Z,65.40
2019-02-05T04:18:55.939Z,65.37
2019-02-05T04:24:00.868Z,65.64
2019-02-05T04:34:41.396Z,65.45
2019-02-05T04:39:51.392Z,65.04
2019-02-05T04:50:42.153Z,65.89
2019-02-05T05:01:22.625Z,65.35
2019-02-05T05:12:00.311Z,65.85
2019-02-05T05:17:01.770Z,65.82
2019-02-05T05:22:03.146Z,65.49
2019-02-05T05:27:04.690Z,65.40
2019-02-05T05:32:06.072Z,65.52
2019-02-05T05:37:07.229Z,65.57
2019-02-05T05:42:08.690Z,64.98
2019-02-05T05:47:10.253Z,64.99
2019-02-05T05:52:11.637Z,65.18
2019-02-05T05:57:13.067Z,65.12
2019-02-05T06:02:14.459Z,64.77
2019-02-05T06:07:15.841Z,64.56
2019-02-05T06:12:17.208Z,65.27
2019-02-05T06:17:18.608Z,64.47
2019-02-05T06:22:20.170Z,65.17
2019-02-05T06:27:21.595Z,65.26
2019-02-05T06:32:23.097Z,65.16
2019-02-05T06:37:26.030Z,65.29
2019-02-05T06:42:27.493Z,65.32
2019-02-05T06:47:28.833Z,66.23
2019-02-05T06:52:30.885Z,65.73
2019-02-05T06:57:32.378Z,65.19
2019-02-05T07:02:34.955Z,65.78
2019-02-05T07:07:37.468Z,65.95
2019-02-05T07:12:39.708Z,65.75
2019-02-05T07:17:49.273Z,65.67
2019-02-05T07:22:43.289Z,64.79
2019-02-05T07:27:44.849Z,64.39
2019-02-05T07:32:46.280Z,64.75
2019-02-05T07:37:47.724Z,64.78
2019-02-05T07:42:49.132Z,63.53
2019-02-05T07:47:50.739Z,62.85
2019-02-05T07:52:52.192Z,62.69
2019-02-05T07:57:54.252Z,61.97
2019-02-05T08:02:55.615Z,61.30
2019-02-05T08:07:57.001Z,61.08
2019-02-05T08:12:59.084Z,60.80
2019-02-05T08:18:01.178Z,61.13
2019-02-05T08:23:02.663Z,61.72
2019-02-05T08:28:04.110Z,62.06
2019-02-05T08:33:05.458Z,61.66
2019-02-05T08:38:06.842Z,61.63
2019-02-05T08:43:08.237Z,61.10
2019-02-05T08:48:09.591Z,60.30
2019-02-05T08:53:11.009Z,60.17
2019-02-05T08:58:12.393Z,60.97
2019-02-05T09:03:13.748Z,62.07
2019-02-05T09:08:15.113Z,61.92
2019-02-05T09:13:17.259Z,61.48
2019-02-05T09:18:18.612Z,63.32
2019-02-05T09:23:20.008Z,63.21
2019-02-05T09:28:21.352Z,66.11
2019-02-05T09:33:22.716Z,64.66
2019-02-05T09:38:24.053Z,64.96
2019-02-05T09:43:25.385Z,64.88
2019-02-05T09:48:27.481Z,63.64
2019-02-05T09:53:28.881Z,63.59
2019-02-05T09:58:30.344Z,62.10
2019-02-05T10:03:31.709Z,61.84
2019-02-05T10:08:33.057Z,61.13
2019-02-05T10:13:34.446Z,62.22
2019-02-05T10:18:35.867Z,63.87
2019-02-05T10:23:37.316Z,64.55
2019-02-05T10:28:38.732Z,62.78
2019-02-05T10:33:40.125Z,62.77
2019-02-05T10:38:41.521Z,62.72
2019-02-05T10:43:42.934Z,62.69
2019-02-05T10:48:44.271Z,61.38
2019-02-05T10:53:45.763Z,61.15
2019-02-05T10:58:47.220Z,61.19
2019-02-05T11:03:48.594Z,63.02
2019-02-05T11:08:50.027Z,62.23
2019-02-05T11:13:51.427Z,61.68
2019-02-05T11:18:52.783Z,62.37
2019-02-05T11:23:54.218Z,61.95
2019-02-05T11:28:55.536Z,61.22
2019-02-05T11:33:56.840Z,61.26
2019-02-05T11:38:58.210Z,60.85
2019-02-05T11:43:59.603Z,61.34
2019-02-05T11:49:01.117Z,60.67
2019-02-05T11:54:03.334Z,59.85
2019-02-05T11:59:04.744Z,59.06
2019-02-05T12:04:06.100Z,59.49
2019-02-05T12:09:07.554Z,58.35
2019-02-05T12:14:08.961Z,58.15
2019-02-05T12:19:10.387Z,59.62
2019-02-05T12:24:11.771Z,59.73
2019-02-05T12:29:13.196Z,59.03
2019-02-05T12:34:14.592Z,60.17
2019-02-05T12:39:15.968Z,58.23
2019-02-05T12:44:17.321Z,58.03
2019-02-05T12:49:18.709Z,58.52
2019-02-05T12:54:20.031Z,58.48
2019-02-05T12:59:21.377Z,57.54
2019-02-05T13:04:22.750Z,55.34
2019-02-05T13:09:24.189Z,57.18
2019-02-05T13:14:26.259Z,57.91
2019-02-05T13:19:27.620Z,57.34
2019-02-05T13:24:28.963Z,56.11
2019-02-05T13:29:30.340Z,56.50
2019-02-05T13:34:31.692Z,56.28
2019-02-05T13:39:33.037Z,55.39
2019-02-05T13:44:34.367Z,54.05
2019-02-05T13:49:35.717Z,54.65
2019-02-05T13:54:37.129Z,57.33
2019-02-05T13:59:38.624Z,56.80
2019-02-05T14:04:39.997Z,57.32
2019-02-05T14:09:41.322Z,56.75
2019-02-05T14:14:42.658Z,57.09
2019-02-05T14:19:44.009Z,55.03
2019-02-05T14:24:45.347Z,56.21
2019-02-05T14:29:46.766Z,59.50
2019-02-05T14:34:48.118Z,58.24
2019-02-05T14:39:49.447Z,59.47
2019-02-05T14:44:50.870Z,61.22
2019-02-05T14:49:52.268Z,61.23
2019-02-05T14:54:53.673Z,63.93
2019-02-05T14:59:55.107Z,63.87
2019-02-05T15:04:56.507Z,64.19
2019-02-05T15:09:57.844Z,62.29
2019-02-05T15:14:59.164Z,61.00
2019-02-05T15:20:01.256Z,61.32
2019-02-05T15:25:02.631Z,61.28
2019-02-05T15:30:12.741Z,60.82
2019-02-05T15:35:14.121Z,60.20
2019-02-05T15:40:15.443Z,60.13
2019-02-05T15:45:16.789Z,60.11
2019-02-05T15:50:18.124Z,60.16
2019-02-05T15:55:21.073Z,59.82
2019-02-05T16:00:20.839Z,59.93
2019-02-05T16:05:22.197Z,61.26
2019-02-05T16:10:23.557Z,61.72
2019-02-05T16:15:24.970Z,61.45
2019-02-05T16:20:26.337Z,61.87
2019-02-05T16:25:27.784Z,62.24
2019-02-05T16:30:29.222Z,64.03
2019-02-05T16:35:30.549Z,63.78
2019-02-05T16:40:34.640Z,64.61
2019-02-05T16:45:35.974Z,65.71
2019-02-05T16:50:43.126Z,65.66
2019-02-05T16:55:45.261Z,65.99
2019-02-05T17:00:46.595Z,65.74
2019-02-05T17:05:47.941Z,65.08
2019-02-05T17:10:49.342Z,64.86
2019-02-05T17:15:55.734Z,64.57
2019-02-05T17:20:58.204Z,65.84
2019-02-05T17:25:59.624Z,64.85
2019-02-05T17:31:01.094Z,64.57
2019-02-05T17:36:03.051Z,64.89
2019-02-05T17:41:05.561Z,64.33
2019-02-05T17:46:06.883Z,64.14
2019-02-05T17:51:09.305Z,64.01
2019-02-05T17:56:10.756Z,64.87
2019-02-05T18:01:17.355Z,66.16
2019-02-05T18:06:18.703Z,66.61
2019-02-05T18:11:20.156Z,67.77
2019-02-05T18:16:21.477Z,68.68
2019-02-05T18:21:22.879Z,68.43
2019-02-05T18:26:25.831Z,67.67
2019-02-05T18:31:27.343Z,66.58
2019-02-05T18:36:32.032Z,66.10
2019-02-05T18:41:36.801Z,65.52
2019-02-05T18:46:42.343Z,65.78
2019-02-05T18:51:43.753Z,65.92
2019-02-05T18:56:45.207Z,66.06
2019-02-05T19:01:47.411Z,66.01
2019-02-05T19:06:48.857Z,65.93
2019-02-05T19:12:04.146Z,66.34
2019-02-05T19:17:04.276Z,66.34
2019-02-05T19:22:10.294Z,67.59
2019-02-05T19:27:11.728Z,67.84
2019-02-05T19:32:13.820Z,67.40
2019-02-05T19:37:16.049Z,66.94
2019-02-05T19:42:17.506Z,66.88
2019-02-05T19:47:19.097Z,66.56
2019-02-05T19:52:20.393Z,66.61
2019-02-05T19:57:21.797Z,66.89
2019-02-05T20:02:23.284Z,66.78
2019-02-05T20:07:26.125Z,67.82
2019-02-05T20:12:29.259Z,67.72
2019-02-05T20:17:30.789Z,67.60
2019-02-05T20:22:32.288Z,67.11
2019-02-05T20:27:33.760Z,67.24
2019-02-05T20:32:35.252Z,67.17
2019-02-05T20:37:37.296Z,67.12
2019-02-05T20:42:38.761Z,67.10
2019-02-05T20:47:41.535Z,67.44
2019-02-05T20:52:52.523Z,67.25
2019-02-05T20:57:54.696Z,67.22
2019-02-05T21:02:58.069Z,67.52
2019-02-05T21:07:59.521Z,67.09
2019-02-05T21:13:01.957Z,66.98
2019-02-05T21:18:03.459Z,67.43
2019-02-05T21:23:19.584Z,67.65
2019-02-05T21:28:20.955Z,67.74
2019-02-05T21:33:22.449Z,67.89
2019-02-05T21:38:23.934Z,67.35
2019-02-05T21:43:25.990Z,67.44
2019-02-05T21:48:28.426Z,67.62
2019-02-05T21:53:36.194Z,67.64
2019-02-05T21:58:40.296Z,67.29
2019-02-05T22:03:51.489Z,67.52
2019-02-05T22:08:52.905Z,68.11
2019-02-05T22:14:02.682Z,68.32
2019-02-05T22:19:08.330Z,68.26
2019-02-05T22:24:11.954Z,68.05
2019-02-05T22:29:16.361Z,68.34
2019-02-05T22:34:17.822Z,68.07
2019-02-05T22:39:21.441Z,67.94
2019-02-05T22:44:27.976Z,67.74
2019-02-05T22:49:32.692Z,67.91
2019-02-05T22:54:36.519Z,67.90
2019-02-05T22:59:40.225Z,68.39
2019-02-05T23:04:50.358Z,67.78
2019-02-05T23:09:51.730Z,68.33
2019-02-05T23:15:13.028Z,68.06
2019-02-05T23:20:15.105Z,67.56
2019-02-05T23:25:17.210Z,67.31
2019-02-05T23:30:18.548Z,66.98
2019-02-05T23:35:20.710Z,67.33
2019-02-05T23:40:22.057Z,67.05
2019-02-05T23:45:23.434Z,67.19
2019-02-05T23:50:24.796Z,66.69
2019-02-05T23:55:26.129Z,66.39
